TimeCST,TemperatureF,Dew PointF,Humidity,Sea Level PressureIn,VisibilityMPH,Wind Direction,Wind SpeedMPH,Gust SpeedMPH,PrecipitationIn,Events,Conditions,WindDirDegrees,DateUTC
12:00 AM,70,68,91,,12,NE,2.3,,,,Partly Cloudy,50,2012-11-05 06:00:00
12:00 AM,69.8,68.0,94,-9999,6.2,NE,2.3,-,N/A,,Scattered Clouds,50,2012-11-05 06:00:00
1:00 AM,69.8,68.0,94,-9999,6.2,Calm,Calm,-,N/A,,Scattered Clouds,0,2012-11-05 07:00:00
2:00 AM,69.8,68.0,94,-9999,6.2,Calm,Calm,-,N/A,,Scattered Clouds,0,2012-11-05 08:00:00
3:00 AM,69,68,96,,11,ESE,2.3,,,,Partly Cloudy,120,2012-11-05 09:00:00
3:00 AM,68.0,68.0,100,-9999,6.2,ESE,2.3,-,N/A,,Scattered Clouds,120,2012-11-05 09:00:00
4:00 AM,68.0,68.0,100,-9999,6.2,SE,2.3,-,N/A,,Scattered Clouds,140,2012-11-05 10:00:00
5:00 AM,64.4,64.4,100,-9999,6.2,ENE,2.3,-,N/A,,Scattered Clouds,70,2012-11-05 11:00:00
6:00 AM,69,68,94,,7,Calm,Calm,,,,Overcast,,2012-11-05 12:00:00
6:00 AM,68.0,68.0,100,-9999,6.2,Calm,Calm,-,N/A,,Overcast,0,2012-11-05 12:00:00
7:00 AM,69.8,69.8,100,-9999,6.2,NE,6.9,-,N/A,,Overcast,40,2012-11-05 13:00:00
8:00 AM,71.6,69.8,94,-9999,6.2,SE,4.6,-,N/A,,Mostly Cloudy,140,2012-11-05 14:00:00
9:00 AM,77,72,79,,11,South,2.3,,,,Mostly Cloudy,180,2012-11-05 15:00:00
9:00 AM,77.0,71.6,83,-9999,6.2,South,2.3,-,N/A,,Mostly Cloudy,180,2012-11-05 15:00:00
10:00 AM,78.8,71.6,78,-9999,6.2,SSW,4.6,-,N/A,,Mostly Cloudy,200,2012-11-05 16:00:00
11:00 AM,77.0,71.6,83,-9999,6.2,South,6.9,-,N/A,,Mostly Cloudy,170,2012-11-05 17:00:00
12:00 PM,83,74,66,,12,SSW,4.6,,,,Partly Cloudy,200,2012-11-05 18:00:00
12:00 PM,84.2,73.4,70,-9999,6.2,SSW,4.6,-,N/A,,Scattered Clouds,200,2012-11-05 18:00:00
1:00 PM,86.0,73.4,66,-9999,-9999.0,North,-9999.0,-,N/A,,Scattered Clouds,0,2012-11-05 19:00:00
2:00 PM,80.6,73.4,79,-9999,6.2,Calm,Calm,-,N/A,,Scattered Clouds,0,2012-11-05 20:00:00
4:00 PM,82.4,75.2,79,-9999,6.2,East,6.9,-,N/A,,Scattered Clouds,90,2012-11-05 22:00:00
5:00 PM,80.6,69.8,70,-9999,6.2,East,11.5,-,N/A,,Scattered Clouds,90,2012-11-05 23:00:00
6:00 PM,79,74,79,,11,ENE,4.6,,,,Partly Cloudy,60,2012-11-06 00:00:00
6:00 PM,78.8,73.4,83,-9999,6.2,ENE,4.6,-,N/A,,Scattered Clouds,60,2012-11-06 00:00:00
7:00 PM,77.0,73.4,89,-9999,6.2,ENE,2.3,-,N/A,,Scattered Clouds,70,2012-11-06 01:00:00
8:00 PM,73.4,68.0,83,-9999,6.2,Calm,Calm,-,N/A,,Scattered Clouds,0,2012-11-06 02:00:00
9:00 PM,73,69,82,,12,Calm,Calm,,,,Scattered Clouds,,2012-11-06 03:00:00
9:00 PM,73.4,68.0,83,-9999,6.2,Calm,Calm,-,N/A,,Partly Cloudy,0,2012-11-06 03:00:00
10:00 PM,73.4,68.0,83,-9999,6.2,NE,4.6,-,N/A,,Partly Cloudy,40,2012-11-06 04:00:00
11:00 PM,71.6,69.8,94,-9999,6.2,East,2.3,-,N/A,,Partly Cloudy,90,2012-11-06 05:00:00